Terminal Aerodrome Forecast
Issued by NWS Cleveland, OH

Home | Current Version | Previous Version | Text Only | Print | Product List | Glossary On
Versions: 1 2 3 4 5 6 7 8 9 10 11 12 13 14
000
FTUS41 KCLE 240500
TAFCAK
TAF
KCAK 240540Z 2406/2506 16005KT P6SM SCT250
     FM241300 18008KT P6SM BKN250
     FM241800 18008KT P6SM BKN120 OVC250
     FM250000 16006KT P6SM OVC120=

USA.gov is the U.S. government's official web portal to all federal, state and local government web resources and services.